createdAt,value
2023-11-30T00:00:43.610Z,4.50
2023-11-30T00:03:49.410Z,5.05
2023-11-30T00:06:55.284Z,5.32
2023-11-30T00:10:00.828Z,5.35
2023-11-30T00:13:06.184Z,4.82
2023-11-30T00:16:12.093Z,5.55
2023-11-30T00:19:17.908Z,4.07
2023-11-30T00:22:23.851Z,5.15
2023-11-30T00:25:30.098Z,4.45
2023-11-30T00:28:35.829Z,4.35
2023-11-30T00:31:42.454Z,4.43
2023-11-30T00:34:49.081Z,4.03
2023-11-30T00:37:54.495Z,4.30
2023-11-30T00:41:00.252Z,4.68
2023-11-30T00:44:05.980Z,4.22
2023-11-30T00:47:11.551Z,3.85
2023-11-30T00:50:17.276Z,4.15
2023-11-30T00:53:23.015Z,4.32
2023-11-30T00:56:28.755Z,4.00
2023-11-30T00:59:34.561Z,4.00
2023-11-30T01:02:41.223Z,4.07
2023-11-30T01:05:47.614Z,4.28
2023-11-30T01:08:53.287Z,4.32
2023-11-30T01:11:58.920Z,3.80
2023-11-30T01:15:05.603Z,3.53
2023-11-30T01:18:14.201Z,3.88
2023-11-30T01:21:19.935Z,3.42
2023-11-30T01:24:25.682Z,4.05
2023-11-30T01:27:30.906Z,3.72
2023-11-30T01:30:36.322Z,4.38
2023-11-30T01:33:42.138Z,4.05
2023-11-30T01:36:47.400Z,4.13
2023-11-30T01:39:52.942Z,4.53
2023-11-30T01:42:58.794Z,4.22
2023-11-30T01:46:05.036Z,4.05
2023-11-30T01:49:10.778Z,4.47
2023-11-30T01:52:16.533Z,4.10
2023-11-30T01:55:22.996Z,4.75
2023-11-30T01:58:28.660Z,3.90
2023-11-30T02:01:36.452Z,3.92
2023-11-30T02:04:43.786Z,3.95
2023-11-30T02:07:49.863Z,4.28
2023-11-30T02:10:57.091Z,3.90
2023-11-30T02:14:04.541Z,4.10
2023-11-30T02:17:10.298Z,3.70
2023-11-30T02:20:16.049Z,4.38
2023-11-30T02:23:22.025Z,3.92
2023-11-30T02:26:27.792Z,3.58
2023-11-30T02:29:33.265Z,3.80
2023-11-30T02:32:39.045Z,4.70
2023-11-30T02:35:44.876Z,3.55
2023-11-30T02:38:50.649Z,4.30
2023-11-30T02:41:56.399Z,3.78
2023-11-30T02:45:02.290Z,4.60
2023-11-30T02:48:08.276Z,3.55
2023-11-30T02:51:14.112Z,4.47
2023-11-30T02:54:21.015Z,4.13
2023-11-30T02:57:27.048Z,4.68
2023-11-30T03:00:32.933Z,4.15
2023-11-30T03:03:38.565Z,4.60
2023-11-30T03:06:44.602Z,4.35
2023-11-30T03:09:50.323Z,4.90
2023-11-30T03:12:56.274Z,4.78
2023-11-30T03:16:02.097Z,5.55
2023-11-30T03:19:16.335Z,5.78
2023-11-30T03:22:23.449Z,3.92
2023-11-30T03:25:29.091Z,4.60
2023-11-30T03:28:34.890Z,4.88
2023-11-30T03:31:41.043Z,3.92
2023-11-30T03:34:48.380Z,4.47
2023-11-30T03:37:54.349Z,5.18
2023-11-30T03:41:01.078Z,4.85
2023-11-30T03:44:06.767Z,4.70
2023-11-30T03:47:12.151Z,5.60
2023-11-30T03:50:18.004Z,5.57
2023-11-30T03:53:23.544Z,5.55
2023-11-30T03:56:32.547Z,5.35
2023-11-30T03:59:38.098Z,5.47
2023-11-30T04:02:44.666Z,5.70
2023-11-30T04:05:50.558Z,5.72
2023-11-30T04:08:56.217Z,4.97
2023-11-30T04:12:01.736Z,5.43
2023-11-30T04:15:08.221Z,4.97
2023-11-30T04:18:13.983Z,5.20
2023-11-30T04:21:22.532Z,6.05
2023-11-30T04:24:28.486Z,5.25
2023-11-30T04:27:33.979Z,6.20
2023-11-30T04:30:39.772Z,6.75
2023-11-30T04:33:45.409Z,6.65
2023-11-30T04:36:51.069Z,7.50
2023-11-30T04:39:58.272Z,7.13
2023-11-30T04:43:04.223Z,7.93
2023-11-30T04:46:10.430Z,7.40
2023-11-30T04:49:16.317Z,7.68
2023-11-30T04:52:22.250Z,7.15
2023-11-30T04:55:27.500Z,8.25
2023-11-30T04:58:33.576Z,8.65
2023-11-30T05:01:38.981Z,8.45
2023-11-30T05:04:44.750Z,8.85
2023-11-30T05:07:50.775Z,8.20
2023-11-30T05:10:56.885Z,9.02
2023-11-30T05:14:03.164Z,8.68
2023-11-30T05:17:08.872Z,8.23
2023-11-30T05:20:14.693Z,9.30
2023-11-30T05:23:20.680Z,8.75
2023-11-30T05:26:26.516Z,7.90
2023-11-30T05:29:32.222Z,8.63
2023-11-30T05:32:37.386Z,9.65
2023-11-30T05:35:42.976Z,8.52
2023-11-30T05:38:48.350Z,9.15
2023-11-30T05:41:54.784Z,8.95
2023-11-30T05:44:59.934Z,8.48
2023-11-30T05:48:05.593Z,8.35
2023-11-30T05:51:11.098Z,6.82
2023-11-30T05:54:17.299Z,7.20
2023-11-30T05:57:23.113Z,5.93
2023-11-30T06:00:28.585Z,6.03
2023-11-30T06:03:34.185Z,5.85
2023-11-30T06:06:39.669Z,5.40
2023-11-30T06:09:45.269Z,5.28
2023-11-30T06:12:50.696Z,5.82
2023-11-30T06:15:56.238Z,4.60
2023-11-30T06:19:01.878Z,4.90
2023-11-30T06:22:08.123Z,4.68
2023-11-30T06:25:13.793Z,4.10
2023-11-30T06:28:21.142Z,4.43
2023-11-30T06:31:26.233Z,4.70
2023-11-30T06:34:35.000Z,4.65
2023-11-30T06:37:40.751Z,4.43
2023-11-30T06:40:46.618Z,4.43
2023-11-30T06:43:52.388Z,4.90
2023-11-30T06:46:57.680Z,4.40
2023-11-30T06:50:04.818Z,4.50
2023-11-30T06:53:10.753Z,5.32
2023-11-30T06:56:16.020Z,5.10
2023-11-30T06:59:21.170Z,6.13
2023-11-30T07:02:26.463Z,5.60
2023-11-30T07:05:31.700Z,6.05
2023-11-30T07:08:36.971Z,5.30
2023-11-30T07:11:43.971Z,6.45
2023-11-30T07:14:51.549Z,5.00
2023-11-30T07:17:57.511Z,5.50
2023-11-30T07:21:02.764Z,6.10
2023-11-30T07:24:11.522Z,5.57
2023-11-30T07:27:19.696Z,6.03
2023-11-30T07:30:25.125Z,6.28
2023-11-30T07:33:30.881Z,6.38
2023-11-30T07:36:36.073Z,6.68
2023-11-30T07:39:41.386Z,6.18
2023-11-30T07:42:47.408Z,7.35
2023-11-30T07:45:52.645Z,7.82
2023-11-30T07:48:58.123Z,7.65
2023-11-30T07:52:03.793Z,7.43
2023-11-30T07:55:09.563Z,8.20
2023-11-30T07:58:14.888Z,7.55
2023-11-30T08:01:20.057Z,7.70
2023-11-30T08:04:25.994Z,7.90
2023-11-30T08:07:30.991Z,8.73
2023-11-30T08:10:36.247Z,9.02
2023-11-30T08:13:42.136Z,10.10
2023-11-30T08:16:47.775Z,9.63
2023-11-30T08:19:53.630Z,9.45
2023-11-30T08:22:59.407Z,10.10
2023-11-30T08:26:05.456Z,9.93
2023-11-30T08:29:10.769Z,10.43
2023-11-30T21:10:15.665Z,15.60
2023-11-30T21:13:21.086Z,14.93
2023-11-30T21:16:26.403Z,15.30
2023-11-30T21:19:32.423Z,16.25
2023-11-30T21:22:37.900Z,16.23
2023-11-30T21:25:44.638Z,15.43
2023-11-30T21:28:49.880Z,15.45
2023-11-30T21:31:55.898Z,15.55
2023-11-30T21:35:01.783Z,17.15
2023-11-30T21:38:07.383Z,16.73
2023-11-30T21:41:16.754Z,16.13
2023-11-30T21:44:22.251Z,16.85
2023-11-30T21:47:27.973Z,17.25
2023-11-30T21:50:33.318Z,16.42
2023-11-30T21:53:38.970Z,17.05
2023-11-30T21:56:44.402Z,17.33
2023-11-30T21:59:49.909Z,17.15
2023-11-30T22:02:55.817Z,18.85
2023-11-30T22:06:01.137Z,18.77
2023-11-30T22:09:07.295Z,17.80
2023-11-30T22:12:12.646Z,20.63
2023-11-30T22:15:19.923Z,18.55
2023-11-30T22:18:25.728Z,18.65
2023-11-30T22:21:32.336Z,18.20
2023-11-30T22:24:38.917Z,20.48
2023-11-30T22:27:44.482Z,19.85
2023-11-30T22:30:49.880Z,19.77
2023-11-30T22:33:55.279Z,19.15
2023-11-30T22:37:02.368Z,19.27
2023-11-30T22:40:08.644Z,19.77
2023-11-30T22:43:14.421Z,19.45
2023-11-30T22:46:20.811Z,20.73
2023-11-30T22:49:26.621Z,19.95
2023-11-30T22:52:32.416Z,18.42
2023-11-30T22:55:38.044Z,20.05
2023-11-30T22:58:43.458Z,20.08
2023-11-30T23:01:49.454Z,18.50
2023-11-30T23:04:55.602Z,21.08
2023-11-30T23:08:01.110Z,21.27
2023-11-30T23:11:08.571Z,20.33
2023-11-30T23:14:14.599Z,20.33
2023-11-30T23:17:21.285Z,19.98
2023-11-30T23:20:27.737Z,19.83
2023-11-30T23:23:32.770Z,19.40
2023-11-30T23:26:38.032Z,20.80
2023-11-30T23:29:44.088Z,21.55
2023-11-30T23:32:52.384Z,19.77
2023-11-30T23:35:58.593Z,19.73
2023-11-30T23:39:05.621Z,20.42
2023-11-30T23:42:13.192Z,20.27
2023-11-30T23:45:19.102Z,20.92
2023-11-30T23:48:24.499Z,19.90
2023-11-30T23:51:30.354Z,21.10
2023-11-30T23:54:35.660Z,19.90
2023-11-30T23:57:41.020Z,21.05
